Time;durP1;ratioP1;P1;durP2;ratioP2;P2;SDS_P1;SDS_P2;PMS_P1;PMS_P2;Temp;Humidity;BMP_temperature;BMP_pressure;BME280_temperature;BME280_humidity;BME280_pressure;Samples;Min_cycle;Max_cycle;Signal;HPM_P1;HPM_P2
2021/05/22 00:01:28;;;;;;;;;5.20;5.20;;;;;31.34;56.10;98461.06;4917626;29;8862;-74
2021/05/22 00:03:57;;;;;;;;;5.00;5.00;;;;;31.30;55.56;98452.19;4917728;29;8985;-74
2021/05/22 00:06:26;;;;;;;;;7.00;7.00;;;;;31.40;55.80;98475.00;4917698;29;8871;-74
2021/05/22 00:08:55;;;;;;;;;8.00;8.00;;;;;31.39;56.07;98470.75;4917572;29;8855;-74
2021/05/22 00:11:23;;;;;;;;;5.80;5.80;;;;;31.36;56.02;98477.78;4917806;29;8858;-74
2021/05/22 00:13:52;;;;;;;;;7.00;7.00;;;;;31.21;55.83;98457.38;4917496;29;8870;-74
2021/05/22 00:16:21;;;;;;;;;5.60;5.60;;;;;31.32;55.66;98479.03;4917447;29;8867;-74
2021/05/22 00:18:50;;;;;;;;;4.00;4.00;;;;;31.25;55.49;98479.91;4917360;29;8934;-74
2021/05/22 00:21:18;;;;;;;;;7.00;7.00;;;;;31.29;55.63;98480.63;4917308;29;8883;-74
2021/05/22 00:23:47;;;;;;;;;5.50;5.50;;;;;31.30;55.62;98486.84;4918276;29;8873;-74
2021/05/22 00:26:16;;;;;;;;;7.25;7.25;;;;;31.21;56.35;98472.94;4917298;29;8858;-74
2021/05/22 00:28:45;;;;;;;;;7.75;7.50;;;;;31.21;55.68;98478.41;4917205;29;8925;-73
2021/05/22 00:31:13;;;;;;;;;6.00;6.00;;;;;31.27;56.10;98488.44;4917296;29;8866;-73
2021/05/22 00:33:42;;;;;;;;;6.00;6.00;;;;;31.23;55.82;98486.94;4917210;29;9016;-73
2021/05/22 00:36:11;;;;;;;;;5.60;5.60;;;;;31.26;55.32;98492.34;4917272;29;8843;-74
2021/05/22 00:38:39;;;;;;;;;5.60;5.60;;;;;31.30;56.17;98492.28;4917043;29;8851;-74
2021/05/22 00:41:08;;;;;;;;;8.00;8.00;;;;;31.31;55.96;98497.31;4917369;29;8981;-73
2021/05/22 00:43:37;;;;;;;;;6.00;6.00;;;;;31.35;55.83;98495.31;4915772;29;8878;-74
2021/05/22 00:46:06;;;;;;;;;7.00;7.00;;;;;31.21;55.83;98479.19;4917141;29;8894;-73
2021/05/22 00:48:35;;;;;;;;;6.00;6.00;;;;;31.41;55.72;98503.81;4917062;29;8933;-74
2021/05/22 00:51:04;;;;;;;;;5.50;5.25;;;;;31.44;55.50;98508.44;4916676;29;8859;-74
2021/05/22 00:53:33;;;;;;;;;8.25;8.25;;;;;31.44;55.37;98506.47;4917473;29;8854;-74
2021/05/22 00:56:02;;;;;;;;;6.40;6.40;;;;;31.40;56.06;98505.00;4917032;29;8897;-76
2021/05/22 00:58:33;;;;;;;;;6.00;6.00;;;;;31.42;56.10;98508.84;4914675;29;8941;-76
2021/05/22 01:01:04;;;;;;;;;8.50;8.50;;;;;31.38;55.84;98499.19;4914052;29;8981;-77
2021/05/22 01:03:53;;;;;;;;;6.40;6.40;;;;;31.47;55.89;98511.13;4916857;29;8885;-77
2021/05/22 01:06:25;;;;;;;;;6.25;6.25;;;;;31.51;55.75;98508.34;4915954;29;8918;-76
2021/05/22 01:09:18;;;;;;;;;5.75;5.75;;;;;31.53;55.38;98508.69;4916017;29;8877;-76
2021/05/22 01:11:54;;;;;;;;;6.75;6.75;;;;;31.56;54.91;98512.56;4914778;29;8891;-76
2021/05/22 01:14:33;;;;;;;;;6.75;6.75;;;;;31.53;55.24;98502.47;4915294;29;8874;-76
2021/05/22 01:17:02;;;;;;;;;7.00;7.00;;;;;31.60;55.72;98522.22;4915474;29;8886;-75
2021/05/22 01:19:42;;;;;;;;;8.75;8.75;;;;;31.62;55.34;98514.41;4914886;29;8875;-79
2021/05/22 01:22:14;;;;;;;;;6.00;6.00;;;;;31.63;54.98;98510.50;4914098;29;8870;-75
2021/05/22 01:24:54;;;;;;;;;8.75;8.75;;;;;31.69;55.13;98511.59;4915716;29;8893;-76
2021/05/22 01:27:23;;;;;;;;;8.50;8.50;;;;;31.73;54.64;98509.59;4916382;29;8878;-79
2021/05/22 01:29:53;;;;;;;;;7.25;7.25;;;;;31.76;55.49;98506.03;4917794;29;8973;-77
2021/05/22 01:32:22;;;;;;;;;8.00;8.00;;;;;31.83;55.17;98518.00;4914386;29;8855;-75
2021/05/22 01:34:51;;;;;;;;;8.50;8.50;;;;;31.87;55.30;98522.22;4915909;29;8876;-75
2021/05/22 01:37:20;;;;;;;;;9.25;9.25;;;;;31.82;54.35;98500.88;4899347;29;8937;-76
2021/05/22 01:39:48;;;;;;;;;7.00;7.00;;;;;31.90;54.55;98518.66;4914610;29;8925;-76
2021/05/22 01:42:18;;;;;;;;;8.25;8.25;;;;;31.75;54.69;98495.53;4913476;29;8905;-75
2021/05/22 01:44:51;;;;;;;;;6.50;6.25;;;;;31.87;54.48;98513.25;4915344;29;8854;-75
2021/05/22 01:47:21;;;;;;;;;8.00;8.00;;;;;31.71;54.33;98484.69;4905135;29;8869;-76
2021/05/22 01:49:52;;;;;;;;;4.80;4.80;;;;;31.89;54.61;98514.38;4903148;29;8871;-76
2021/05/22 01:52:22;;;;;;;;;8.40;8.40;;;;;31.90;54.42;98504.25;4903335;29;8869;-74
2021/05/22 01:54:54;;;;;;;;;8.00;8.00;;;;;32.03;54.73;98514.16;4896119;29;8885;-75
2021/05/22 01:57:22;;;;;;;;;7.80;7.80;;;;;32.08;54.64;98518.38;4896138;29;8857;-75
2021/05/22 01:59:51;;;;;;;;;10.40;10.40;;;;;32.15;54.21;98522.94;4895974;29;8884;-76
2021/05/22 02:02:23;;;;;;;;;7.60;7.60;;;;;32.20;53.90;98522.44;4894919;29;8857;-76
2021/05/22 02:04:55;;;;;;;;;6.00;6.00;;;;;32.27;53.90;98525.84;4894510;29;8889;-73
2021/05/22 02:07:26;;;;;;;;;7.00;7.00;;;;;32.34;53.74;98524.97;4895738;29;8861;-74
2021/05/22 02:09:57;;;;;;;;;7.00;7.00;;;;;32.37;53.43;98513.97;4895364;29;8948;-74
2021/05/22 02:12:28;;;;;;;;;6.40;6.40;;;;;32.46;53.33;98521.63;4896924;29;8854;-77
2021/05/22 02:14:58;;;;;;;;;6.00;6.00;;;;;32.40;53.12;98509.63;4899415;29;8893;-74
2021/05/22 02:17:28;;;;;;;;;5.80;5.80;;;;;32.58;53.13;98526.44;4899255;29;8905;-75
2021/05/22 02:19:59;;;;;;;;;8.20;8.20;;;;;32.59;53.37;98510.81;4905171;29;8867;-73
2021/05/22 02:22:28;;;;;;;;;5.80;5.80;;;;;32.68;53.07;98517.25;4918282;29;8867;-75
2021/05/22 02:24:58;;;;;;;;;6.80;6.80;;;;;32.69;53.18;98509.84;4916311;29;8874;-76
2021/05/22 02:27:27;;;;;;;;;7.80;7.80;;;;;32.79;53.01;98516.31;4920671;29;8878;-73
2021/05/22 02:29:55;;;;;;;;;7.40;7.40;;;;;32.62;52.92;98480.72;4908182;29;9579;-75
2021/05/22 02:32:25;;;;;;;;;7.40;7.40;;;;;32.78;53.18;98496.41;4912565;29;8886;-75
2021/05/22 02:34:56;;;;;;;;;7.00;7.00;;;;;32.83;52.67;98508.81;4902218;29;8881;-75
2021/05/22 02:37:30;;;;;;;;;9.40;9.40;;;;;32.94;52.69;98506.63;4901166;29;8877;-76
2021/05/22 02:40:02;;;;;;;;;8.60;8.60;;;;;32.89;52.27;98490.72;4901153;29;8861;-76
2021/05/22 02:42:33;;;;;;;;;9.60;8.80;;;;;32.95;52.12;98497.25;4913418;29;8858;-73
2021/05/22 02:45:03;;;;;;;;;7.40;7.40;;;;;33.03;52.07;98515.81;4899773;29;8842;-76
2021/05/22 02:47:33;;;;;;;;;8.20;8.20;;;;;33.08;52.38;98509.06;4909706;29;8930;-75
2021/05/22 02:50:06;;;;;;;;;8.40;8.40;;;;;33.12;52.13;98507.03;4912020;29;8881;-74
2021/05/22 02:52:38;;;;;;;;;6.80;6.80;;;;;33.12;52.43;98501.56;4908750;29;8998;-74
2021/05/22 02:55:10;;;;;;;;;9.40;9.40;;;;;33.15;52.57;98502.69;4907998;29;8881;-73
2021/05/22 02:57:40;;;;;;;;;7.80;7.80;;;;;33.26;52.23;98503.22;4909024;29;8891;-75
2021/05/22 03:00:09;;;;;;;;;6.20;6.20;;;;;33.27;51.78;98508.25;4908084;29;8954;-74
2021/05/22 03:02:39;;;;;;;;;3.80;3.80;;;;;33.33;51.87;98495.66;4911168;29;8865;-74
2021/05/22 03:05:08;;;;;;;;;7.40;7.40;;;;;33.38;51.56;98488.91;4906547;29;8873;-76
2021/05/22 03:07:37;;;;;;;;;30.25;27.50;;;;;33.33;51.53;98467.53;4909069;29;8920;-74
2021/05/22 03:10:07;;;;;;;;;7.40;7.00;;;;;33.44;51.68;98475.50;4914385;29;8850;-74
2021/05/22 03:12:37;;;;;;;;;6.20;6.20;;;;;33.41;51.63;98463.44;4911076;29;8897;-75
2021/05/22 03:15:08;;;;;;;;;7.80;7.80;;;;;33.48;51.74;98467.97;4908507;29;8877;-75
2021/05/22 03:17:37;;;;;;;;;7.40;7.40;;;;;33.55;51.67;98467.81;4906486;29;8905;-74
2021/05/22 03:20:08;;;;;;;;;8.00;8.00;;;;;33.50;51.68;98460.88;4904720;29;8892;-75
2021/05/22 03:22:37;;;;;;;;;8.00;8.00;;;;;33.52;51.46;98455.00;4915146;29;8867;-73
2021/05/22 03:25:06;;;;;;;;;8.60;8.60;;;;;33.65;50.90;98453.88;4904758;29;9633;-75
2021/05/22 03:27:37;;;;;;;;;8.00;8.00;;;;;33.70;51.31;98447.88;4901678;29;8892;-72
2021/05/22 03:30:08;;;;;;;;;6.80;6.80;;;;;33.76;49.82;98452.84;4913438;29;8866;-71
2021/05/22 03:32:37;;;;;;;;;6.00;6.00;;;;;33.82;50.34;98453.84;4917579;29;8871;-73
2021/05/22 03:35:06;;;;;;;;;8.60;8.60;;;;;33.74;50.83;98428.66;4917611;29;8866;-77
2021/05/22 03:37:35;;;;;;;;;4.20;4.20;;;;;33.87;50.24;98436.94;4917441;29;8832;-74
2021/05/22 03:40:05;;;;;;;;;7.20;7.20;;;;;33.97;50.30;98444.09;4915909;29;8858;-75
2021/05/22 03:42:34;;;;;;;;;7.60;7.20;;;;;33.92;50.13;98426.22;4916739;29;8847;-77
2021/05/22 03:45:04;;;;;;;;;8.00;8.00;;;;;34.08;50.32;98436.38;4917697;29;8855;-73
2021/05/22 03:47:33;;;;;;;;;8.00;8.00;;;;;34.07;49.94;98423.13;4916019;29;9601;-75
2021/05/22 03:50:04;;;;;;;;;1.00;0.40;;;;;34.15;50.16;98427.19;4911258;29;8859;-76
2021/05/22 03:52:33;;;;;;;;;8.00;8.00;;;;;34.13;50.05;98424.88;4914732;29;8858;-75
2021/05/22 03:55:02;;;;;;;;;7.20;7.20;;;;;34.27;49.90;98431.94;4916452;29;8863;-74
2021/05/22 03:57:31;;;;;;;;;7.40;7.40;;;;;34.32;49.60;98420.50;4915699;29;8863;-76
2021/05/22 04:00:02;;;;;;;;;5.20;5.20;;;;;34.31;50.26;98411.50;4916732;29;8863;-78
2021/05/22 04:02:31;;;;;;;;;6.80;6.80;;;;;34.41;49.70;98417.88;4916849;29;8886;-76
2021/05/22 04:05:00;;;;;;;;;6.20;6.20;;;;;34.43;49.88;98410.00;4905862;29;9619;-77
2021/05/22 04:07:29;;;;;;;;;6.60;6.60;;;;;34.52;49.30;98412.09;4911446;29;8874;-72
2021/05/22 04:09:57;;;;;;;;;6.00;6.00;;;;;34.55;48.53;98408.50;4916568;29;8898;-78
2021/05/22 04:12:26;;;;;;;;;7.80;7.80;;;;;34.62;47.94;98400.84;4903780;29;8862;-72
2021/05/22 04:14:56;;;;;;;;;6.00;6.00;;;;;34.73;48.50;98397.78;4898243;29;8902;-75
2021/05/22 04:17:25;;;;;;;;;5.40;5.40;;;;;34.83;47.88;98401.44;4903336;29;8861;-72
2021/05/22 04:19:54;;;;;;;;;6.00;6.00;;;;;34.93;48.92;98400.34;4911167;29;8908;-76
2021/05/22 04:22:22;;;;;;;;;5.00;5.00;;;;;34.96;47.94;98386.53;4896797;29;8869;-75
2021/05/22 04:24:52;;;;;;;;;6.00;6.00;;;;;34.99;47.73;98388.38;4894803;29;8999;-74
2021/05/22 04:27:20;;;;;;;;;6.00;6.00;;;;;34.90;48.80;98382.81;4896013;29;8869;-77
2021/05/22 04:29:50;;;;;;;;;6.20;6.20;;;;;34.86;47.93;98371.19;4896260;29;8881;-76
2021/05/22 04:32:19;;;;;;;;;4.60;4.60;;;;;34.83;48.95;98371.28;4896744;29;8939;-76
2021/05/22 04:34:47;;;;;;;;;4.80;4.80;;;;;34.72;47.50;98370.81;4895426;29;8881;-73
2021/05/22 04:37:16;;;;;;;;;5.80;5.80;;;;;34.66;48.62;98365.88;4895994;29;8960;-76
2021/05/22 04:39:45;;;;;;;;;5.60;5.60;;;;;34.73;47.38;98366.88;4896101;29;9008;-78
2021/05/22 04:42:14;;;;;;;;;4.80;4.80;;;;;34.75;47.71;98359.75;4896500;29;8896;-74
2021/05/22 04:44:43;;;;;;;;;4.40;4.40;;;;;34.92;47.97;98365.91;4896243;29;9034;-73
2021/05/22 04:47:12;;;;;;;;;5.20;5.20;;;;;35.02;47.91;98359.34;4894418;29;8985;-74
2021/05/22 04:49:41;;;;;;;;;6.80;6.80;;;;;35.16;47.33;98350.63;4896048;29;8874;-76
2021/05/22 04:52:10;;;;;;;;;4.00;4.00;;;;;35.31;47.95;98357.22;4896551;29;8865;-73
2021/05/22 04:54:39;;;;;;;;;4.80;4.80;;;;;35.46;47.12;98354.00;4896161;29;8966;-74
2021/05/22 04:57:07;;;;;;;;;5.40;5.40;;;;;35.59;47.11;98352.75;4904530;29;8878;-73
2021/05/22 04:59:36;;;;;;;;;4.40;4.40;;;;;35.68;47.78;98341.06;4914309;29;8871;-75
2021/05/22 05:02:05;;;;;;;;;5.40;5.40;;;;;35.66;46.77;98310.56;4914052;29;8989;-76
2021/05/22 05:04:34;;;;;;;;;7.80;7.80;;;;;35.98;46.68;98339.66;4913952;29;8870;-77
2021/05/22 05:07:06;;;;;;;;;6.00;6.00;;;;;35.98;45.69;98325.91;4913167;29;8981;-76
2021/05/22 05:09:36;;;;;;;;;5.80;5.80;;;;;35.94;47.04;98325.28;4913840;29;8859;-76
2021/05/22 05:12:07;;;;;;;;;5.60;5.60;;;;;35.91;45.91;98329.69;4911697;29;8871;-77
2021/05/22 05:14:35;;;;;;;;;4.60;4.60;;;;;35.85;46.82;98331.47;4911988;29;8862;-74
2021/05/22 05:17:04;;;;;;;;;5.40;5.40;;;;;35.63;46.53;98298.50;4911495;29;8866;-77
2021/05/22 05:19:34;;;;;;;;;5.40;5.40;;;;;35.73;47.46;98315.03;4909176;29;8839;-76
2021/05/22 05:22:03;;;;;;;;;7.00;7.00;;;;;35.66;46.74;98318.81;4906735;29;8851;-75
2021/05/22 05:24:34;;;;;;;;;7.60;7.60;;;;;35.57;47.56;98308.53;4908088;29;8867;-74
2021/05/22 05:27:04;;;;;;;;;6.00;6.00;;;;;35.54;45.74;98309.41;4902717;29;8850;-76
2021/05/22 05:29:35;;;;;;;;;5.60;5.60;;;;;35.42;47.12;98288.28;4901956;29;8863;-75
2021/05/22 05:32:04;;;;;;;;;3.40;3.40;;;;;35.47;47.78;98306.16;4909282;29;8874;-76
2021/05/22 05:34:33;;;;;;;;;3.00;3.00;;;;;35.36;47.54;98281.81;4904065;29;8981;-76
2021/05/22 05:37:02;;;;;;;;;5.00;5.00;;;;;35.40;47.46;98281.72;4901141;29;8859;-76
2021/05/22 05:39:31;;;;;;;;;5.00;5.00;;;;;35.31;47.91;98263.97;4911841;29;8934;-73
2021/05/22 05:42:01;;;;;;;;;7.00;7.00;;;;;35.44;46.76;98263.91;4909626;29;8874;-73
2021/05/22 05:44:30;;;;;;;;;5.60;5.60;;;;;35.56;47.08;98267.81;4904043;29;8885;-71
2021/05/22 05:46:59;;;;;;;;;5.60;5.60;;;;;35.58;46.42;98254.41;4907260;29;8874;-75
2021/05/22 05:49:31;;;;;;;;;6.80;5.80;;;;;35.68;47.31;98266.22;4912831;29;8883;-73
2021/05/22 05:52:00;;;;;;;;;5.00;5.00;;;;;35.67;46.79;98259.97;4912680;29;9612;-77
2021/05/22 05:54:29;;;;;;;;;4.60;4.60;;;;;35.67;45.95;98248.22;4912579;29;8888;-74
2021/05/22 05:56:58;;;;;;;;;6.80;6.80;;;;;35.67;47.19;98248.22;4909252;29;8889;-74
2021/05/22 05:59:27;;;;;;;;;5.40;5.40;;;;;35.58;46.68;98244.22;4911349;29;8898;-73
2021/05/22 06:01:56;;;;;;;;;6.80;6.80;;;;;35.58;46.56;98248.94;4898357;29;8877;-74
2021/05/22 06:04:28;;;;;;;;;7.00;7.00;;;;;35.50;47.05;98236.69;4900222;29;8881;-73
2021/05/22 06:06:56;;;;;;;;;6.80;5.80;;;;;35.50;46.96;98231.97;4895509;29;8868;-74
2021/05/22 06:09:25;;;;;;;;;7.60;7.60;;;;;35.54;46.75;98226.34;4895758;29;8926;-75
2021/05/22 06:11:54;;;;;;;;;6.00;6.00;;;;;35.67;47.00;98220.78;4896679;29;8857;-75
2021/05/22 06:14:31;;;;;;;;;6.00;6.00;;;;;35.80;47.49;98227.00;4896484;29;8903;-75
2021/05/22 06:17:00;;;;;;;;;5.80;5.80;;;;;35.81;45.97;98190.88;4895212;29;8988;-75
2021/05/22 06:19:31;;;;;;;;;5.40;5.40;;;;;36.07;44.99;98207.91;4895734;29;9610;-74
2021/05/22 06:22:00;;;;;;;;;5.00;5.00;;;;;36.26;45.31;98211.50;4896520;29;8877;-75
2021/05/22 06:24:28;;;;;;;;;5.80;5.80;;;;;36.37;45.08;98202.88;4896191;29;8960;-75
2021/05/22 06:26:57;;;;;;;;;5.80;5.00;;;;;36.43;44.75;98201.78;4894763;29;8873;-76
2021/05/22 06:29:26;;;;;;;;;5.00;5.00;;;;;36.38;44.50;98191.44;4894290;29;8893;-76
2021/05/22 06:31:55;;;;;;;;;5.20;5.20;;;;;36.38;44.76;98187.91;4895307;29;8877;-74
2021/05/22 06:34:24;;;;;;;;;3.00;3.00;;;;;36.31;44.06;98177.97;4896034;29;8892;-73
2021/05/22 06:36:54;;;;;;;;;5.40;5.40;;;;;36.31;43.95;98177.22;4893984;29;9611;-76
2021/05/22 06:39:22;;;;;;;;;5.80;5.80;;;;;36.26;44.55;98162.06;4893092;29;8865;-77
2021/05/22 06:41:51;;;;;;;;;6.00;6.00;;;;;36.26;45.29;98165.59;4893536;29;8894;-75
2021/05/22 06:44:30;;;;;;;;;3.80;3.80;;;;;36.26;44.84;98164.81;4894916;29;8873;-73
2021/05/22 06:46:59;;;;;;;;;4.80;4.80;;;;;36.21;45.63;98163.44;4895464;29;8919;-76
2021/05/22 06:49:31;;;;;;;;;4.80;4.80;;;;;36.22;45.88;98156.72;4894861;29;8889;-77
2021/05/22 06:52:02;;;;;;;;;5.80;5.80;;;;;36.30;45.26;98159.22;4895406;29;8988;-73
2021/05/22 06:54:34;;;;;;;;;4.40;4.40;;;;;36.38;44.64;98152.97;4895386;29;8874;-76
2021/05/22 06:57:02;;;;;;;;;4.00;4.00;;;;;36.49;44.73;98150.53;4896250;29;8873;-77
2021/05/22 06:59:31;;;;;;;;;6.60;6.60;;;;;36.57;44.56;98145.50;4898812;29;9012;-77
2021/05/22 07:02:01;;;;;;;;;4.00;4.00;;;;;36.58;44.14;98136.81;4900228;29;8881;-76
2021/05/22 07:04:30;;;;;;;;;4.00;4.00;;;;;36.60;44.67;98122.59;4899477;29;8849;-77
2021/05/22 07:06:58;;;;;;;;;6.00;6.00;;;;;36.42;45.37;98108.84;4898842;29;8897;-77
2021/05/22 07:09:27;;;;;;;;;4.60;4.60;;;;;36.55;44.26;98117.72;4898183;29;8885;-77
2021/05/22 07:11:55;;;;;;;;;4.40;4.40;;;;;36.50;45.01;98126.56;4898376;29;8869;-77
2021/05/22 07:14:26;;;;;;;;;4.60;4.60;;;;;36.43;44.18;98121.38;4898884;29;9010;-77
2021/05/22 07:16:56;;;;;;;;;2.80;2.80;;;;;36.20;46.36;98090.50;4900252;29;8885;-76
2021/05/22 07:19:26;;;;;;;;;4.00;4.00;;;;;36.29;45.49;98102.75;4899446;29;9586;-74
2021/05/22 07:21:56;;;;;;;;;4.40;4.40;;;;;36.20;44.75;98089.75;4899454;29;8938;-74
2021/05/22 07:24:25;;;;;;;;;3.80;3.80;;;;;36.09;45.40;98094.91;4899601;29;8853;-74
2021/05/22 07:26:56;;;;;;;;;3.40;3.40;;;;;35.92;46.07;98080.66;4899380;29;8885;-74
2021/05/22 07:29:25;;;;;;;;;3.00;3.00;;;;;35.93;45.49;98095.91;4898364;29;8937;-74
2021/05/22 07:31:54;;;;;;;;;3.80;3.80;;;;;35.80;46.05;98079.56;4899672;29;9595;-74
2021/05/22 07:34:25;;;;;;;;;3.40;3.40;;;;;35.84;46.64;98079.44;4899665;29;8866;-74
2021/05/22 07:36:54;;;;;;;;;3.80;3.80;;;;;35.80;45.79;98065.84;4899296;29;8873;-74
2021/05/22 07:39:22;;;;;;;;;5.20;5.20;;;;;35.97;45.48;98073.81;4898868;29;8876;-74
2021/05/22 07:41:51;;;;;;;;;5.00;5.00;;;;;36.05;44.64;98067.59;4914542;29;8884;-74
2021/05/22 07:44:20;;;;;;;;;4.20;4.20;;;;;36.08;45.10;98044.72;4899234;29;8869;-74
2021/05/22 07:46:49;;;;;;;;;3.20;3.20;;;;;36.32;44.79;98047.69;4899209;29;8889;-74
2021/05/22 07:49:18;;;;;;;;;5.20;5.20;;;;;36.45;44.32;98042.78;4898967;29;8849;-74
2021/05/22 07:51:47;;;;;;;;;3.80;3.40;;;;;36.63;43.24;98050.25;4899378;29;8857;-74
2021/05/22 07:54:16;;;;;;;;;4.20;4.20;;;;;36.78;43.42;98050.44;4899057;29;8865;-74
2021/05/22 07:56:45;;;;;;;;;3.60;3.60;;;;;36.82;44.20;98029.81;4899053;29;8853;-74
2021/05/22 07:59:13;;;;;;;;;4.40;4.40;;;;;37.07;43.21;98045.19;4899214;29;8857;-74
2021/05/22 08:01:42;;;;;;;;;4.00;4.00;;;;;37.18;43.06;98039.19;4898866;29;8862;-74
2021/05/22 08:04:11;;;;;;;;;3.00;3.00;;;;;37.36;42.15;98041.16;4898902;29;8888;-74
2021/05/22 08:06:40;;;;;;;;;4.00;4.00;;;;;37.47;41.53;98033.16;4898868;29;8911;-74
2021/05/22 08:09:08;;;;;;;;;3.40;3.40;;;;;37.49;42.10;98012.22;4899113;29;8880;-74
2021/05/22 08:11:37;;;;;;;;;5.00;5.00;;;;;37.65;42.19;98024.81;4898682;29;8889;-74
2021/05/22 08:14:06;;;;;;;;;3.20;3.20;;;;;37.77;42.35;98034.09;4898670;29;8861;-74
2021/05/22 08:16:35;;;;;;;;;4.80;4.80;;;;;37.86;42.23;98034.03;4898385;29;8866;-74
2021/05/22 08:19:05;;;;;;;;;4.40;4.40;;;;;37.90;41.82;98020.09;4898549;29;8872;-74
2021/05/22 08:21:35;;;;;;;;;3.80;3.80;;;;;37.97;41.87;98022.50;4898585;29;8857;-74
2021/05/22 08:24:05;;;;;;;;;3.80;3.80;;;;;38.02;42.11;98014.38;4898440;29;8877;-74
2021/05/22 08:26:34;;;;;;;;;4.40;4.40;;;;;38.04;42.82;98003.66;4898469;29;8869;-73
2021/05/22 08:29:23;;;;;;;;;4.40;4.40;;;;;38.14;41.23;98015.38;4898297;29;9599;-74
2021/05/22 08:31:52;;;;;;;;;3.60;3.60;;;;;38.11;41.39;98005.28;4898333;29;8869;-74
2021/05/22 08:34:21;;;;;;;;;3.60;3.60;;;;;38.21;41.89;98015.03;4898379;29;8975;-74
2021/05/22 08:36:49;;;;;;;;;4.00;4.00;;;;;38.19;41.14;98003.72;4898971;29;8877;-74
2021/05/22 08:39:18;;;;;;;;;3.00;3.00;;;;;38.17;41.02;98006.94;4898457;29;8875;-74
2021/05/22 08:41:49;;;;;;;;;3.00;3.00;;;;;38.22;41.37;98004.78;4898763;29;8940;-74
2021/05/22 08:44:18;;;;;;;;;3.00;3.00;;;;;38.24;43.05;97999.56;4912768;29;8853;-73
2021/05/22 08:46:47;;;;;;;;;3.40;3.40;;;;;38.34;41.97;98006.50;4898090;29;8849;-74
2021/05/22 08:49:16;;;;;;;;;3.20;3.20;;;;;38.38;42.35;98001.59;4898088;29;8968;-73
2021/05/22 08:51:45;;;;;;;;;2.60;2.60;;;;;38.47;41.44;97998.75;4899025;29;8858;-73
2021/05/22 08:54:14;;;;;;;;;4.40;4.40;;;;;38.54;40.61;97998.38;4897992;29;8932;-74
2021/05/22 08:56:42;;;;;;;;;3.40;3.40;;;;;38.43;39.00;97967.84;4897933;29;8881;-74
2021/05/22 08:59:12;;;;;;;;;3.40;3.40;;;;;38.57;38.94;97977.38;4897999;29;8833;-74
2021/05/22 09:01:40;;;;;;;;;3.00;3.00;;;;;38.65;40.27;97997.84;4897830;29;8865;-73
2021/05/22 09:04:10;;;;;;;;;2.00;2.00;;;;;38.67;40.78;97993.38;4897700;29;8880;-74
2021/05/22 09:07:05;;;;;;;;;4.20;4.20;;;;;38.72;40.92;97991.97;4897743;29;8869;-74
2021/05/22 09:09:42;;;;;;;;;4.00;4.00;;;;;38.75;39.98;97991.78;4897919;29;8961;-74
2021/05/22 09:12:11;;;;;;;;;4.20;4.20;;;;;38.80;39.47;97991.09;4897712;29;8862;-73
2021/05/22 09:14:41;;;;;;;;;3.00;3.00;;;;;38.85;39.97;97994.44;4897573;29;9650;-74
2021/05/22 09:17:12;;;;;;;;;3.60;3.60;;;;;38.85;39.32;97986.16;4897525;29;8910;-73
2021/05/22 09:19:41;;;;;;;;;2.80;2.80;;;;;38.93;42.22;97988.06;4897571;29;9008;-74
2021/05/22 09:22:24;;;;;;;;;4.40;4.40;;;;;38.90;38.92;97977.22;4897064;29;9576;-74
2021/05/22 09:24:59;;;;;;;;;3.40;3.40;;;;;38.86;40.58;97977.41;4897496;29;8858;-74
2021/05/22 09:27:40;;;;;;;;;2.80;2.80;;;;;38.84;38.22;97974.38;4897494;29;8853;-74
2021/05/22 09:30:14;;;;;;;;;3.60;3.60;;;;;38.80;39.00;97982.84;4897379;29;8945;-74
2021/05/22 09:32:45;;;;;;;;;3.00;3.00;;;;;38.79;39.18;97984.06;4897339;29;9631;-74
2021/05/22 09:35:16;;;;;;;;;2.80;2.80;;;;;38.80;38.96;97982.84;4897262;29;8869;-74
2021/05/22 09:37:54;;;;;;;;;2.80;2.80;;;;;38.82;40.98;97988.63;4897272;29;9710;-74
2021/05/22 09:40:30;;;;;;;;;2.40;2.40;;;;;38.84;40.48;97990.91;4897181;29;8865;-74
2021/05/22 09:43:00;;;;;;;;;4.00;4.00;;;;;38.85;39.91;97983.41;4897252;29;8868;-73
2021/05/22 09:45:40;;;;;;;;;2.60;2.60;;;;;38.85;40.71;97986.94;4897066;29;9621;-73
2021/05/22 09:48:15;;;;;;;;;2.40;2.40;;;;;38.85;39.73;97986.94;4897176;29;8891;-73
2021/05/22 09:50:47;;;;;;;;;2.20;2.20;;;;;38.86;39.57;97993.19;4897081;29;8853;-74
2021/05/22 09:53:25;;;;;;;;;2.20;2.20;;;;;38.79;39.60;97989.59;4897195;29;8842;-73
2021/05/22 09:56:17;;;;;;;;;2.00;2.00;;;;;38.73;39.89;97985.97;4897078;29;8857;-73
2021/05/22 09:58:56;;;;;;;;;3.60;3.60;;;;;38.66;39.08;97991.88;4897073;29;8948;-73
2021/05/22 10:01:30;;;;;;;;;3.00;3.00;;;;;38.60;39.39;97993.75;4897047;29;8853;-73
2021/05/22 10:04:18;;;;;;;;;3.60;3.60;;;;;38.51;39.66;98004.84;4897105;29;8861;-73
2021/05/22 10:06:47;;;;;;;;;3.20;3.20;;;;;38.36;39.90;98001.28;4896931;29;8850;-73
2021/05/22 10:09:22;;;;;;;;;4.60;3.80;;;;;38.26;39.94;98006.13;4896959;29;8861;-73
2021/05/22 10:12:10;;;;;;;;;3.00;3.00;;;;;38.15;38.70;98014.16;4896858;29;8872;-73
2021/05/22 10:14:41;;;;;;;;;3.60;3.60;;;;;38.05;40.82;98026.44;4897098;29;8873;-73
2021/05/22 10:17:13;;;;;;;;;4.40;4.40;;;;;37.91;40.39;98038.91;4896815;29;8905;-73
2021/05/22 10:19:41;;;;;;;;;4.60;4.60;;;;;37.78;39.23;98038.38;4896925;29;8872;-73
2021/05/22 10:22:10;;;;;;;;;2.80;2.80;;;;;37.67;39.52;98041.63;4897511;29;8881;-73
2021/05/22 10:24:39;;;;;;;;;4.00;4.00;;;;;37.51;40.24;98034.53;4896724;29;8965;-73
2021/05/22 10:27:10;;;;;;;;;4.00;4.00;;;;;37.45;40.27;98038.38;4896722;29;8877;-73
2021/05/22 10:29:38;;;;;;;;;4.60;4.60;;;;;37.38;40.21;98042.22;4896798;29;8962;-74
2021/05/22 10:32:17;;;;;;;;;4.00;4.00;;;;;37.31;40.51;98050.03;4896771;29;8929;-73
2021/05/22 10:34:48;;;;;;;;;3.80;3.80;;;;;37.24;40.50;98051.13;4900284;29;8869;-73
2021/05/22 10:37:40;;;;;;;;;4.00;4.00;;;;;37.17;41.42;98054.94;4900437;29;8884;-73
2021/05/22 10:40:10;;;;;;;;;2.80;2.80;;;;;37.10;42.10;98052.50;4900250;29;8936;-73
2021/05/22 10:42:39;;;;;;;;;4.00;4.00;;;;;37.09;41.22;98058.47;4900206;29;8865;-73
2021/05/22 10:45:25;;;;;;;;;3.80;3.80;;;;;37.05;41.63;98061.38;4900215;29;8898;-74
2021/05/22 10:47:55;;;;;;;;;4.00;4.00;;;;;37.02;41.59;98065.06;4900405;29;8877;-73
2021/05/22 10:50:36;;;;;;;;;3.00;3.00;;;;;37.00;41.73;98069.50;4900297;29;8877;-73
2021/05/22 10:53:16;;;;;;;;;7.80;7.80;;;;;36.91;42.55;98073.78;4900246;29;8884;-73
2021/05/22 10:55:46;;;;;;;;;7.20;7.20;;;;;36.75;43.33;98079.59;4900066;29;8925;-73
2021/05/22 10:58:14;;;;;;;;;1.40;1.40;;;;;36.54;43.42;98083.22;4914734;29;8853;-73
2021/05/22 11:00:43;;;;;;;;;6.20;6.20;;;;;36.33;43.88;98076.66;4900221;29;8873;-73
2021/05/22 11:03:13;;;;;;;;;7.60;7.60;;;;;36.23;43.74;98086.84;4900179;29;8913;-73
2021/05/22 11:05:43;;;;;;;;;9.20;9.20;;;;;36.11;44.43;98093.22;4900189;29;8861;-73
2021/05/22 11:08:28;;;;;;;;;7.60;7.60;;;;;36.01;44.40;98102.66;4899906;29;8887;-73
2021/05/22 11:11:01;;;;;;;;;9.80;9.80;;;;;35.92;44.67;98108.13;4899884;29;8950;-75
2021/05/22 11:13:39;;;;;;;;;7.00;7.00;;;;;35.75;44.50;98098.56;4900059;29;8857;-73
2021/05/22 11:16:08;;;;;;;;;6.80;6.80;;;;;35.72;44.76;98107.72;4899716;29;8858;-74
2021/05/22 11:18:59;;;;;;;;;8.20;8.20;;;;;35.61;45.16;98108.13;4899716;29;8885;-73
2021/05/22 11:21:28;;;;;;;;;7.00;7.00;;;;;35.42;45.13;98095.53;4899692;29;8857;-73
2021/05/22 11:24:02;;;;;;;;;5.80;5.80;;;;;35.40;45.40;98106.19;4899841;29;8849;-73
2021/05/22 11:26:59;;;;;;;;;5.80;5.80;;;;;35.29;45.46;98112.03;4899554;29;8873;-73
2021/05/22 11:29:51;;;;;;;;;7.20;7.20;;;;;35.19;46.07;98116.69;4899441;29;8865;-73
2021/05/22 11:32:44;;;;;;;;;10.60;9.20;;;;;35.11;46.16;98118.16;4899519;29;8861;-73
2021/05/22 11:35:46;;;;;;;;;6.40;6.40;;;;;35.05;46.34;98121.94;4899631;29;8883;-73
2021/05/22 11:38:17;;;;;;;;;5.40;5.40;;;;;34.98;46.73;98126.47;4899379;29;8893;-73
2021/05/22 11:41:01;;;;;;;;;7.60;7.60;;;;;34.84;46.13;98113.25;4899300;29;8940;-73
2021/05/22 11:43:37;;;;;;;;;10.00;10.00;;;;;34.78;46.24;98120.50;4898783;29;8957;-73
2021/05/22 11:46:15;;;;;;;;;8.40;7.80;;;;;34.77;46.59;98127.19;4899274;29;8869;-73
2021/05/22 11:48:48;;;;;;;;;9.40;9.40;;;;;34.71;46.92;98131.69;4899100;29;8862;-73
2021/05/22 11:51:32;;;;;;;;;9.60;9.60;;;;;34.67;46.83;98131.06;4899123;29;8877;-73
2021/05/22 11:54:08;;;;;;;;;9.60;9.60;;;;;34.63;47.07;98127.66;4899024;29;8865;-73
2021/05/22 11:56:39;;;;;;;;;8.80;8.80;;;;;34.55;47.11;98118.91;4899101;29;8860;-73
2021/05/22 11:59:13;;;;;;;;;8.00;8.00;;;;;34.55;47.08;98127.13;4899024;29;8861;-74
2021/05/22 12:01:44;;;;;;;;;8.00;8.00;;;;;34.52;47.11;98127.25;4899170;29;9008;-73